sensor_id;sensor_type;location;lat;lon;timestamp;temperature;humidity
3492;DHT22;1760;52.480;13.422;2022-07-06T00:00:59;19.40;73.60
3492;DHT22;1760;52.480;13.422;2022-07-06T00:03:26;19.40;74.00
3492;DHT22;1760;52.480;13.422;2022-07-06T00:05:54;19.40;74.70
3492;DHT22;1760;52.480;13.422;2022-07-06T00:08:23;19.40;74.80
3492;DHT22;1760;52.480;13.422;2022-07-06T00:10:49;19.30;75.20
3492;DHT22;1760;52.480;13.422;2022-07-06T00:13:16;19.30;75.60
3492;DHT22;1760;52.480;13.422;2022-07-06T00:15:43;19.30;75.80
3492;DHT22;1760;52.480;13.422;2022-07-06T00:18:10;19.30;76.20
3492;DHT22;1760;52.480;13.422;2022-07-06T00:20:37;19.30;76.60
3492;DHT22;1760;52.480;13.422;2022-07-06T00:23:05;19.30;76.80
3492;DHT22;1760;52.480;13.422;2022-07-06T00:25:31;19.30;77.30
3492;DHT22;1760;52.480;13.422;2022-07-06T00:27:58;19.30;77.70
3492;DHT22;1760;52.480;13.422;2022-07-06T00:30:25;19.20;78.00
3492;DHT22;1760;52.480;13.422;2022-07-06T00:32:52;19.20;78.40
3492;DHT22;1760;52.480;13.422;2022-07-06T00:35:20;19.30;78.70
3492;DHT22;1760;52.480;13.422;2022-07-06T00:37:47;19.30;79.60
3492;DHT22;1760;52.480;13.422;2022-07-06T00:40:17;19.20;79.20
3492;DHT22;1760;52.480;13.422;2022-07-06T00:42:45;19.30;79.80
3492;DHT22;1760;52.480;13.422;2022-07-06T00:45:14;19.30;80.30
3492;DHT22;1760;52.480;13.422;2022-07-06T00:47:41;19.20;80.40
3492;DHT22;1760;52.480;13.422;2022-07-06T00:50:11;19.20;80.90
3492;DHT22;1760;52.480;13.422;2022-07-06T00:52:45;19.20;81.80
3492;DHT22;1760;52.480;13.422;2022-07-06T00:55:15;19.10;82.80
3492;DHT22;1760;52.480;13.422;2022-07-06T00:57:43;19.20;82.70
3492;DHT22;1760;52.480;13.422;2022-07-06T01:00:11;19.10;83.10
3492;DHT22;1760;52.480;13.422;2022-07-06T01:02:39;19.10;83.80
3492;DHT22;1760;52.480;13.422;2022-07-06T01:05:07;19.10;84.30
3492;DHT22;1760;52.480;13.422;2022-07-06T01:07:35;19.10;85.00
3492;DHT22;1760;52.480;13.422;2022-07-06T01:10:04;19.00;85.70
3492;DHT22;1760;52.480;13.422;2022-07-06T01:12:34;19.00;86.70
3492;DHT22;1760;52.480;13.422;2022-07-06T01:15:02;19.00;87.40
3492;DHT22;1760;52.480;13.422;2022-07-06T01:17:33;19.00;88.00
3492;DHT22;1760;52.480;13.422;2022-07-06T01:20:10;18.90;88.70
3492;DHT22;1760;52.480;13.422;2022-07-06T01:22:37;18.80;89.70
3492;DHT22;1760;52.480;13.422;2022-07-06T01:25:07;18.80;90.20
3492;DHT22;1760;52.480;13.422;2022-07-06T01:27:35;18.80;90.70
3492;DHT22;1760;52.480;13.422;2022-07-06T01:30:05;18.80;91.10
3492;DHT22;1760;52.480;13.422;2022-07-06T01:32:33;18.70;91.80
3492;DHT22;1760;52.480;13.422;2022-07-06T01:35:00;18.70;92.00
3492;DHT22;1760;52.480;13.422;2022-07-06T01:37:28;18.70;92.30
3492;DHT22;1760;52.480;13.422;2022-07-06T01:39:58;18.70;92.70
3492;DHT22;1760;52.480;13.422;2022-07-06T01:42:26;18.70;93.00
3492;DHT22;1760;52.480;13.422;2022-07-06T01:45:07;18.70;93.30
3492;DHT22;1760;52.480;13.422;2022-07-06T01:47:40;18.70;93.60
3492;DHT22;1760;52.480;13.422;2022-07-06T01:50:18;18.80;93.90
3492;DHT22;1760;52.480;13.422;2022-07-06T01:52:49;18.80;94.10
3492;DHT22;1760;52.480;13.422;2022-07-06T01:55:16;18.80;94.10
3492;DHT22;1760;52.480;13.422;2022-07-06T01:57:43;18.80;94.40
3492;DHT22;1760;52.480;13.422;2022-07-06T02:00:10;18.80;94.70
3492;DHT22;1760;52.480;13.422;2022-07-06T02:02:37;18.80;94.60
3492;DHT22;1760;52.480;13.422;2022-07-06T02:05:07;18.80;94.60
3492;DHT22;1760;52.480;13.422;2022-07-06T02:07:34;18.80;94.20
3492;DHT22;1760;52.480;13.422;2022-07-06T02:10:02;18.80;94.20
3492;DHT22;1760;52.480;13.422;2022-07-06T02:12:29;18.80;94.00
3492;DHT22;1760;52.480;13.422;2022-07-06T02:14:56;18.90;93.60
3492;DHT22;1760;52.480;13.422;2022-07-06T02:17:23;18.80;93.50
3492;DHT22;1760;52.480;13.422;2022-07-06T02:19:50;18.90;93.40
3492;DHT22;1760;52.480;13.422;2022-07-06T02:22:17;18.90;93.40
3492;DHT22;1760;52.480;13.422;2022-07-06T02:24:44;18.90;93.90
3492;DHT22;1760;52.480;13.422;2022-07-06T02:27:12;18.90;95.10
3492;DHT22;1760;52.480;13.422;2022-07-06T02:29:39;18.90;96.90
3492;DHT22;1760;52.480;13.422;2022-07-06T02:32:06;18.80;99.90
3492;DHT22;1760;52.480;13.422;2022-07-06T02:34:33;18.70;99.90
3492;DHT22;1760;52.480;13.422;2022-07-06T02:37:00;18.60;99.90
3492;DHT22;1760;52.480;13.422;2022-07-06T02:39:27;18.40;99.90
3492;DHT22;1760;52.480;13.422;2022-07-06T02:41:54;18.30;99.90
3492;DHT22;1760;52.480;13.422;2022-07-06T02:44:23;18.30;99.90
3492;DHT22;1760;52.480;13.422;2022-07-06T02:47:13;18.20;99.90
3492;DHT22;1760;52.480;13.422;2022-07-06T02:49:42;18.20;99.90
3492;DHT22;1760;52.480;13.422;2022-07-06T02:52:09;18.10;99.90
3492;DHT22;1760;52.480;13.422;2022-07-06T02:54:36;18.10;99.90
3492;DHT22;1760;52.480;13.422;2022-07-06T02:57:03;18.00;99.90
3492;DHT22;1760;52.480;13.422;2022-07-06T02:59:31;18.00;99.90
3492;DHT22;1760;52.480;13.422;2022-07-06T03:01:58;17.90;99.90
3492;DHT22;1760;52.480;13.422;2022-07-06T03:04:25;17.90;99.90
3492;DHT22;1760;52.480;13.422;2022-07-06T03:06:54;17.90;99.90
3492;DHT22;1760;52.480;13.422;2022-07-06T03:09:21;17.80;99.90
3492;DHT22;1760;52.480;13.422;2022-07-06T03:11:48;17.80;99.90
3492;DHT22;1760;52.480;13.422;2022-07-06T03:14:15;17.80;99.90
3492;DHT22;1760;52.480;13.422;2022-07-06T03:16:44;17.80;99.90
3492;DHT22;1760;52.480;13.422;2022-07-06T03:19:12;17.70;99.90
3492;DHT22;1760;52.480;13.422;2022-07-06T03:21:39;17.70;99.90
3492;DHT22;1760;52.480;13.422;2022-07-06T03:24:06;17.80;99.90
3492;DHT22;1760;52.480;13.422;2022-07-06T03:26:33;17.70;99.90
3492;DHT22;1760;52.480;13.422;2022-07-06T03:29:00;17.70;99.90
3492;DHT22;1760;52.480;13.422;2022-07-06T03:31:26;17.60;99.90
3492;DHT22;1760;52.480;13.422;2022-07-06T03:33:55;17.60;99.90
3492;DHT22;1760;52.480;13.422;2022-07-06T03:36:21;17.60;99.90
3492;DHT22;1760;52.480;13.422;2022-07-06T03:38:51;17.50;99.90
3492;DHT22;1760;52.480;13.422;2022-07-06T03:41:18;17.50;99.90
3492;DHT22;1760;52.480;13.422;2022-07-06T03:43:45;17.50;99.90
3492;DHT22;1760;52.480;13.422;2022-07-06T03:46:15;17.50;99.90
3492;DHT22;1760;52.480;13.422;2022-07-06T03:48:42;17.50;99.90
3492;DHT22;1760;52.480;13.422;2022-07-06T03:51:10;17.50;99.90
3492;DHT22;1760;52.480;13.422;2022-07-06T03:53:42;17.50;99.90
3492;DHT22;1760;52.480;13.422;2022-07-06T03:56:08;17.50;99.90
3492;DHT22;1760;52.480;13.422;2022-07-06T03:58:52;17.50;99.90
3492;DHT22;1760;52.480;13.422;2022-07-06T04:01:19;17.50;99.90
3492;DHT22;1760;52.480;13.422;2022-07-06T04:03:46;17.50;99.90
3492;DHT22;1760;52.480;13.422;2022-07-06T04:06:14;17.50;99.90
3492;DHT22;1760;52.480;13.422;2022-07-06T04:08:41;17.50;99.90
3492;DHT22;1760;52.480;13.422;2022-07-06T04:11:08;17.50;99.90
3492;DHT22;1760;52.480;13.422;2022-07-06T04:13:35;17.50;99.90
3492;DHT22;1760;52.480;13.422;2022-07-06T04:16:03;17.50;99.90
3492;DHT22;1760;52.480;13.422;2022-07-06T04:18:29;17.50;99.90
3492;DHT22;1760;52.480;13.422;2022-07-06T04:20:56;17.50;99.90
3492;DHT22;1760;52.480;13.422;2022-07-06T04:23:28;17.50;99.90
3492;DHT22;1760;52.480;13.422;2022-07-06T04:25:59;17.50;99.90
3492;DHT22;1760;52.480;13.422;2022-07-06T04:28:28;17.60;99.90
3492;DHT22;1760;52.480;13.422;2022-07-06T04:30:55;17.60;99.90
3492;DHT22;1760;52.480;13.422;2022-07-06T04:33:22;17.60;99.90
3492;DHT22;1760;52.480;13.422;2022-07-06T04:35:49;17.60;99.90
3492;DHT22;1760;52.480;13.422;2022-07-06T04:38:16;17.60;99.90
3492;DHT22;1760;52.480;13.422;2022-07-06T04:40:44;17.60;99.90
3492;DHT22;1760;52.480;13.422;2022-07-06T04:43:12;17.60;99.90
3492;DHT22;1760;52.480;13.422;2022-07-06T04:45:40;17.60;99.90
3492;DHT22;1760;52.480;13.422;2022-07-06T04:48:10;17.60;99.90
3492;DHT22;1760;52.480;13.422;2022-07-06T04:50:37;17.50;99.90
3492;DHT22;1760;52.480;13.422;2022-07-06T04:53:04;17.50;99.90
3492;DHT22;1760;52.480;13.422;2022-07-06T04:55:31;17.50;99.90
3492;DHT22;1760;52.480;13.422;2022-07-06T04:57:59;17.50;99.90
3492;DHT22;1760;52.480;13.422;2022-07-06T05:00:28;17.50;99.90
3492;DHT22;1760;52.480;13.422;2022-07-06T05:02:55;17.60;99.90
3492;DHT22;1760;52.480;13.422;2022-07-06T05:05:22;17.50;99.90
3492;DHT22;1760;52.480;13.422;2022-07-06T05:07:59;17.50;99.90
3492;DHT22;1760;52.480;13.422;2022-07-06T05:10:26;17.60;99.90
3492;DHT22;1760;52.480;13.422;2022-07-06T05:12:54;17.60;99.90
3492;DHT22;1760;52.480;13.422;2022-07-06T05:15:23;17.70;99.90
3492;DHT22;1760;52.480;13.422;2022-07-06T05:17:51;17.80;99.90
3492;DHT22;1760;52.480;13.422;2022-07-06T05:20:20;17.80;99.90
3492;DHT22;1760;52.480;13.422;2022-07-06T05:22:47;17.80;99.90
3492;DHT22;1760;52.480;13.422;2022-07-06T05:25:14;17.80;99.90
3492;DHT22;1760;52.480;13.422;2022-07-06T05:27:43;17.80;99.90
3492;DHT22;1760;52.480;13.422;2022-07-06T05:30:11;17.80;99.90
3492;DHT22;1760;52.480;13.422;2022-07-06T05:32:39;17.70;99.90
3492;DHT22;1760;52.480;13.422;2022-07-06T05:35:09;17.80;99.90
3492;DHT22;1760;52.480;13.422;2022-07-06T05:37:37;17.80;99.90
3492;DHT22;1760;52.480;13.422;2022-07-06T05:40:04;17.80;99.90
3492;DHT22;1760;52.480;13.422;2022-07-06T05:42:34;17.80;99.90
3492;DHT22;1760;52.480;13.422;2022-07-06T05:45:01;17.80;99.90
3492;DHT22;1760;52.480;13.422;2022-07-06T05:47:29;17.80;99.90
3492;DHT22;1760;52.480;13.422;2022-07-06T05:50:15;17.70;99.90
3492;DHT22;1760;52.480;13.422;2022-07-06T05:52:54;17.80;99.90
3492;DHT22;1760;52.480;13.422;2022-07-06T05:55:21;17.90;99.90
3492;DHT22;1760;52.480;13.422;2022-07-06T05:57:48;17.90;99.90
3492;DHT22;1760;52.480;13.422;2022-07-06T06:00:16;17.90;99.90
3492;DHT22;1760;52.480;13.422;2022-07-06T06:02:43;17.90;99.90
3492;DHT22;1760;52.480;13.422;2022-07-06T06:05:11;18.00;99.90
3492;DHT22;1760;52.480;13.422;2022-07-06T06:07:40;18.10;99.90
3492;DHT22;1760;52.480;13.422;2022-07-06T06:10:09;18.10;99.90
3492;DHT22;1760;52.480;13.422;2022-07-06T06:12:39;18.10;99.90
3492;DHT22;1760;52.480;13.422;2022-07-06T06:15:07;18.10;99.90
3492;DHT22;1760;52.480;13.422;2022-07-06T06:17:35;18.20;99.90
3492;DHT22;1760;52.480;13.422;2022-07-06T06:20:04;18.30;99.90
3492;DHT22;1760;52.480;13.422;2022-07-06T06:22:32;18.40;99.90
3492;DHT22;1760;52.480;13.422;2022-07-06T06:25:00;18.50;99.90
3492;DHT22;1760;52.480;13.422;2022-07-06T06:27:27;18.50;99.90
3492;DHT22;1760;52.480;13.422;2022-07-06T06:29:53;18.60;99.90
3492;DHT22;1760;52.480;13.422;2022-07-06T06:32:20;18.70;99.90
3492;DHT22;1760;52.480;13.422;2022-07-06T06:34:47;18.80;99.90
3492;DHT22;1760;52.480;13.422;2022-07-06T06:37:14;18.80;99.90
3492;DHT22;1760;52.480;13.422;2022-07-06T06:39:41;18.90;99.90
3492;DHT22;1760;52.480;13.422;2022-07-06T06:42:09;18.90;99.90
3492;DHT22;1760;52.480;13.422;2022-07-06T06:44:36;18.90;99.90
3492;DHT22;1760;52.480;13.422;2022-07-06T06:47:03;18.90;99.90
3492;DHT22;1760;52.480;13.422;2022-07-06T06:49:30;18.70;99.90
3492;DHT22;1760;52.480;13.422;2022-07-06T06:51:56;18.70;99.90
3492;DHT22;1760;52.480;13.422;2022-07-06T06:54:23;18.60;99.90
3492;DHT22;1760;52.480;13.422;2022-07-06T06:56:50;18.50;99.90
3492;DHT22;1760;52.480;13.422;2022-07-06T06:59:18;18.40;99.90
3492;DHT22;1760;52.480;13.422;2022-07-06T07:01:45;18.50;99.90
3492;DHT22;1760;52.480;13.422;2022-07-06T07:04:12;18.60;99.90
3492;DHT22;1760;52.480;13.422;2022-07-06T07:06:39;18.80;99.90
3492;DHT22;1760;52.480;13.422;2022-07-06T07:09:06;19.00;99.90
3492;DHT22;1760;52.480;13.422;2022-07-06T07:11:33;19.30;99.90
3492;DHT22;1760;52.480;13.422;2022-07-06T07:14:01;19.60;99.90
3492;DHT22;1760;52.480;13.422;2022-07-06T07:16:30;19.70;99.90
3492;DHT22;1760;52.480;13.422;2022-07-06T07:18:56;20.00;99.90
3492;DHT22;1760;52.480;13.422;2022-07-06T07:21:23;20.20;99.90
3492;DHT22;1760;52.480;13.422;2022-07-06T07:23:50;20.60;99.90
3492;DHT22;1760;52.480;13.422;2022-07-06T07:26:18;21.20;99.90
3492;DHT22;1760;52.480;13.422;2022-07-06T07:28:44;21.10;99.90
3492;DHT22;1760;52.480;13.422;2022-07-06T07:31:12;21.20;99.90
3492;DHT22;1760;52.480;13.422;2022-07-06T07:33:40;21.90;99.90
3492;DHT22;1760;52.480;13.422;2022-07-06T07:36:09;22.60;99.90
3492;DHT22;1760;52.480;13.422;2022-07-06T07:38:36;22.50;99.90
3492;DHT22;1760;52.480;13.422;2022-07-06T07:41:03;22.20;99.70
3492;DHT22;1760;52.480;13.422;2022-07-06T07:43:31;21.90;99.50
3492;DHT22;1760;52.480;13.422;2022-07-06T07:45:58;21.50;99.70
3492;DHT22;1760;52.480;13.422;2022-07-06T07:48:25;21.00;99.20
3492;DHT22;1760;52.480;13.422;2022-07-06T07:50:53;20.80;99.30
3492;DHT22;1760;52.480;13.422;2022-07-06T07:53:20;21.40;98.30
3492;DHT22;1760;52.480;13.422;2022-07-06T07:55:49;22.90;95.80
3492;DHT22;1760;52.480;13.422;2022-07-06T07:58:15;23.80;93.10
3492;DHT22;1760;52.480;13.422;2022-07-06T08:00:44;24.10;91.20
3492;DHT22;1760;52.480;13.422;2022-07-06T08:03:11;23.80;90.80
3492;DHT22;1760;52.480;13.422;2022-07-06T08:05:38;23.70;89.80
3492;DHT22;1760;52.480;13.422;2022-07-06T08:08:06;23.80;90.20
3492;DHT22;1760;52.480;13.422;2022-07-06T08:10:33;24.20;89.30
3492;DHT22;1760;52.480;13.422;2022-07-06T08:13:00;24.70;86.00
3492;DHT22;1760;52.480;13.422;2022-07-06T08:15:27;24.70;84.00
3492;DHT22;1760;52.480;13.422;2022-07-06T08:17:54;25.00;80.00
3492;DHT22;1760;52.480;13.422;2022-07-06T08:20:21;25.00;77.80
3492;DHT22;1760;52.480;13.422;2022-07-06T08:22:47;24.60;78.00
3492;DHT22;1760;52.480;13.422;2022-07-06T08:25:16;24.50;79.10
3492;DHT22;1760;52.480;13.422;2022-07-06T08:27:43;24.60;78.10
3492;DHT22;1760;52.480;13.422;2022-07-06T08:30:11;25.00;77.10
3492;DHT22;1760;52.480;13.422;2022-07-06T08:32:38;26.00;74.20
3492;DHT22;1760;52.480;13.422;2022-07-06T08:35:08;26.50;72.30
3492;DHT22;1760;52.480;13.422;2022-07-06T08:37:35;26.10;71.00
3492;DHT22;1760;52.480;13.422;2022-07-06T08:40:03;25.40;71.30
3492;DHT22;1760;52.480;13.422;2022-07-06T08:42:33;25.50;70.40
3492;DHT22;1760;52.480;13.422;2022-07-06T08:45:02;25.90;68.10
3492;DHT22;1760;52.480;13.422;2022-07-06T08:47:30;25.60;66.10
3492;DHT22;1760;52.480;13.422;2022-07-06T08:49:58;24.50;66.40
3492;DHT22;1760;52.480;13.422;2022-07-06T08:52:25;23.80;69.10
3492;DHT22;1760;52.480;13.422;2022-07-06T08:54:52;23.20;71.40
3492;DHT22;1760;52.480;13.422;2022-07-06T08:57:19;22.50;74.00
3492;DHT22;1760;52.480;13.422;2022-07-06T08:59:47;22.30;76.30
3492;DHT22;1760;52.480;13.422;2022-07-06T09:02:14;22.80;75.60
3492;DHT22;1760;52.480;13.422;2022-07-06T09:04:43;23.00;74.10
3492;DHT22;1760;52.480;13.422;2022-07-06T09:07:10;22.90;73.90
3492;DHT22;1760;52.480;13.422;2022-07-06T09:09:37;22.70;74.30
3492;DHT22;1760;52.480;13.422;2022-07-06T09:12:11;22.20;75.10
3492;DHT22;1760;52.480;13.422;2022-07-06T09:14:38;21.70;76.60
3492;DHT22;1760;52.480;13.422;2022-07-06T09:17:06;21.40;77.30
3492;DHT22;1760;52.480;13.422;2022-07-06T09:19:34;20.90;77.70
3492;DHT22;1760;52.480;13.422;2022-07-06T09:22:04;20.70;78.90
3492;DHT22;1760;52.480;13.422;2022-07-06T09:24:31;20.50;76.40
3492;DHT22;1760;52.480;13.422;2022-07-06T09:26:59;20.50;74.20
3492;DHT22;1760;52.480;13.422;2022-07-06T09:29:29;20.40;75.20
3492;DHT22;1760;52.480;13.422;2022-07-06T09:31:57;20.50;74.80
3492;DHT22;1760;52.480;13.422;2022-07-06T09:34:40;20.70;74.50
3492;DHT22;1760;52.480;13.422;2022-07-06T09:37:08;21.00;74.50
3492;DHT22;1760;52.480;13.422;2022-07-06T09:39:36;21.20;73.30
3492;DHT22;1760;52.480;13.422;2022-07-06T09:42:04;21.30;73.30
3492;DHT22;1760;52.480;13.422;2022-07-06T09:44:34;21.20;71.80
3492;DHT22;1760;52.480;13.422;2022-07-06T09:47:04;21.20;72.10
3492;DHT22;1760;52.480;13.422;2022-07-06T09:49:32;21.40;73.60
3492;DHT22;1760;52.480;13.422;2022-07-06T09:52:00;21.50;72.10
3492;DHT22;1760;52.480;13.422;2022-07-06T09:54:28;21.40;71.60
3492;DHT22;1760;52.480;13.422;2022-07-06T09:56:56;21.40;72.10
3492;DHT22;1760;52.480;13.422;2022-07-06T09:59:26;21.20;72.50
3492;DHT22;1760;52.480;13.422;2022-07-06T10:01:54;21.10;71.50
3492;DHT22;1760;52.480;13.422;2022-07-06T10:04:22;21.10;72.00
3492;DHT22;1760;52.480;13.422;2022-07-06T10:06:51;21.10;73.10
3492;DHT22;1760;52.480;13.422;2022-07-06T10:09:21;21.20;73.40
3492;DHT22;1760;52.480;13.422;2022-07-06T10:11:50;21.20;73.40
3492;DHT22;1760;52.480;13.422;2022-07-06T10:14:19;21.10;73.40
3492;DHT22;1760;52.480;13.422;2022-07-06T10:16:47;21.10;71.70
3492;DHT22;1760;52.480;13.422;2022-07-06T10:19:20;21.00;73.30
3492;DHT22;1760;52.480;13.422;2022-07-06T10:21:48;20.90;74.60
3492;DHT22;1760;52.480;13.422;2022-07-06T10:24:18;20.80;74.60
3492;DHT22;1760;52.480;13.422;2022-07-06T10:26:46;20.90;74.70
3492;DHT22;1760;52.480;13.422;2022-07-06T10:29:15;20.90;75.60
3492;DHT22;1760;52.480;13.422;2022-07-06T10:31:44;20.90;75.50
3492;DHT22;1760;52.480;13.422;2022-07-06T10:34:14;20.90;77.00
3492;DHT22;1760;52.480;13.422;2022-07-06T10:36:42;20.90;77.70
3492;DHT22;1760;52.480;13.422;2022-07-06T10:39:10;21.10;77.60
3492;DHT22;1760;52.480;13.422;2022-07-06T10:41:56;21.30;77.90
3492;DHT22;1760;52.480;13.422;2022-07-06T10:44:24;21.40;77.40
3492;DHT22;1760;52.480;13.422;2022-07-06T10:46:52;21.40;77.70
3492;DHT22;1760;52.480;13.422;2022-07-06T10:49:20;21.50;78.40
3492;DHT22;1760;52.480;13.422;2022-07-06T10:51:47;21.60;78.00
3492;DHT22;1760;52.480;13.422;2022-07-06T10:54:16;21.60;77.40
3492;DHT22;1760;52.480;13.422;2022-07-06T10:56:44;21.90;76.30
3492;DHT22;1760;52.480;13.422;2022-07-06T10:59:13;22.30;76.40
3492;DHT22;1760;52.480;13.422;2022-07-06T11:01:41;22.90;73.50
3492;DHT22;1760;52.480;13.422;2022-07-06T11:04:10;23.10;70.60
3492;DHT22;1760;52.480;13.422;2022-07-06T11:06:38;23.30;69.60
3492;DHT22;1760;52.480;13.422;2022-07-06T11:09:08;23.30;68.60
3492;DHT22;1760;52.480;13.422;2022-07-06T11:11:40;23.40;67.40
3492;DHT22;1760;52.480;13.422;2022-07-06T11:14:10;23.60;66.90
3492;DHT22;1760;52.480;13.422;2022-07-06T11:19:26;23.90;66.60
3492;DHT22;1760;52.480;13.422;2022-07-06T11:21:56;23.80;66.50
3492;DHT22;1760;52.480;13.422;2022-07-06T11:24:26;23.50;67.60
3492;DHT22;1760;52.480;13.422;2022-07-06T11:26:57;23.30;68.40
3492;DHT22;1760;52.480;13.422;2022-07-06T11:29:26;23.00;69.40
3492;DHT22;1760;52.480;13.422;2022-07-06T11:31:56;22.60;71.10
3492;DHT22;1760;52.480;13.422;2022-07-06T11:34:26;22.30;73.30
3492;DHT22;1760;52.480;13.422;2022-07-06T11:36:56;22.10;74.10
3492;DHT22;1760;52.480;13.422;2022-07-06T11:39:27;22.00;74.00
3492;DHT22;1760;52.480;13.422;2022-07-06T11:41:54;21.80;74.30
3492;DHT22;1760;52.480;13.422;2022-07-06T11:44:21;21.70;74.70
3492;DHT22;1760;52.480;13.422;2022-07-06T11:46:48;21.60;75.30
3492;DHT22;1760;52.480;13.422;2022-07-06T11:49:18;21.80;75.90
3492;DHT22;1760;52.480;13.422;2022-07-06T11:51:46;21.80;74.50
3492;DHT22;1760;52.480;13.422;2022-07-06T11:54:14;21.90;73.90
3492;DHT22;1760;52.480;13.422;2022-07-06T11:56:46;21.90;74.70
3492;DHT22;1760;52.480;13.422;2022-07-06T11:59:14;21.90;74.20
3492;DHT22;1760;52.480;13.422;2022-07-06T12:01:41;21.90;72.90
3492;DHT22;1760;52.480;13.422;2022-07-06T12:04:10;21.90;73.80
3492;DHT22;1760;52.480;13.422;2022-07-06T12:06:38;22.20;73.00
3492;DHT22;1760;52.480;13.422;2022-07-06T12:09:05;22.50;72.70
3492;DHT22;1760;52.480;13.422;2022-07-06T12:11:34;22.90;70.80
3492;DHT22;1760;52.480;13.422;2022-07-06T12:14:02;22.90;70.00
3492;DHT22;1760;52.480;13.422;2022-07-06T12:16:31;22.80;70.50
3492;DHT22;1760;52.480;13.422;2022-07-06T12:19:00;22.60;70.90
3492;DHT22;1760;52.480;13.422;2022-07-06T12:21:27;22.60;71.60
3492;DHT22;1760;52.480;13.422;2022-07-06T12:23:58;22.60;72.30
3492;DHT22;1760;52.480;13.422;2022-07-06T12:26:27;22.60;71.50
3492;DHT22;1760;52.480;13.422;2022-07-06T12:29:03;22.40;71.00
3492;DHT22;1760;52.480;13.422;2022-07-06T12:31:34;22.30;71.80
3492;DHT22;1760;52.480;13.422;2022-07-06T12:34:02;22.30;72.80
3492;DHT22;1760;52.480;13.422;2022-07-06T12:36:29;22.30;73.30
3492;DHT22;1760;52.480;13.422;2022-07-06T12:38:58;22.10;74.50
3492;DHT22;1760;52.480;13.422;2022-07-06T12:41:30;22.20;75.00
3492;DHT22;1760;52.480;13.422;2022-07-06T12:44:06;22.40;75.30
3492;DHT22;1760;52.480;13.422;2022-07-06T12:46:35;22.70;74.70
3492;DHT22;1760;52.480;13.422;2022-07-06T12:49:10;22.80;72.30
3492;DHT22;1760;52.480;13.422;2022-07-06T12:51:58;22.80;72.40
3492;DHT22;1760;52.480;13.422;2022-07-06T12:54:28;22.90;71.80
3492;DHT22;1760;52.480;13.422;2022-07-06T12:57:06;23.00;71.70
3492;DHT22;1760;52.480;13.422;2022-07-06T12:59:36;23.10;72.10
3492;DHT22;1760;52.480;13.422;2022-07-06T13:02:04;23.20;72.00
3492;DHT22;1760;52.480;13.422;2022-07-06T13:04:32;23.30;71.50
3492;DHT22;1760;52.480;13.422;2022-07-06T13:06:59;23.20;71.90
3492;DHT22;1760;52.480;13.422;2022-07-06T13:09:28;23.00;72.90
3492;DHT22;1760;52.480;13.422;2022-07-06T13:11:56;22.80;73.60
3492;DHT22;1760;52.480;13.422;2022-07-06T13:14:23;22.70;73.30
3492;DHT22;1760;52.480;13.422;2022-07-06T13:16:50;22.70;73.60
3492;DHT22;1760;52.480;13.422;2022-07-06T13:19:16;22.70;73.60
3492;DHT22;1760;52.480;13.422;2022-07-06T13:21:45;22.50;72.60
3492;DHT22;1760;52.480;13.422;2022-07-06T13:24:12;22.40;70.90
3492;DHT22;1760;52.480;13.422;2022-07-06T13:26:40;22.30;71.20
3492;DHT22;1760;52.480;13.422;2022-07-06T13:29:07;22.40;71.60
3492;DHT22;1760;52.480;13.422;2022-07-06T13:31:36;22.50;72.40
3492;DHT22;1760;52.480;13.422;2022-07-06T13:34:04;22.60;70.80
3492;DHT22;1760;52.480;13.422;2022-07-06T13:36:31;22.60;70.90
3492;DHT22;1760;52.480;13.422;2022-07-06T13:38:58;22.50;70.40
3492;DHT22;1760;52.480;13.422;2022-07-06T13:41:27;22.50;71.50
3492;DHT22;1760;52.480;13.422;2022-07-06T13:43:55;22.40;70.50
3492;DHT22;1760;52.480;13.422;2022-07-06T13:46:22;22.30;70.90
3492;DHT22;1760;52.480;13.422;2022-07-06T13:48:48;22.10;71.60
3492;DHT22;1760;52.480;13.422;2022-07-06T13:51:17;22.00;71.20
3492;DHT22;1760;52.480;13.422;2022-07-06T13:53:44;21.90;71.60
3492;DHT22;1760;52.480;13.422;2022-07-06T13:56:14;21.80;72.00
3492;DHT22;1760;52.480;13.422;2022-07-06T13:58:40;21.80;72.50
3492;DHT22;1760;52.480;13.422;2022-07-06T14:01:09;21.80;72.80
3492;DHT22;1760;52.480;13.422;2022-07-06T14:03:39;21.80;73.60
3492;DHT22;1760;52.480;13.422;2022-07-06T14:06:06;21.70;73.90
3492;DHT22;1760;52.480;13.422;2022-07-06T14:08:34;21.80;73.70
3492;DHT22;1760;52.480;13.422;2022-07-06T14:11:01;21.80;74.00
3492;DHT22;1760;52.480;13.422;2022-07-06T14:13:28;21.70;74.60
3492;DHT22;1760;52.480;13.422;2022-07-06T14:15:55;21.70;74.40
3492;DHT22;1760;52.480;13.422;2022-07-06T14:18:24;21.80;73.90
3492;DHT22;1760;52.480;13.422;2022-07-06T14:20:52;21.90;71.40
3492;DHT22;1760;52.480;13.422;2022-07-06T14:23:20;21.80;70.20
3492;DHT22;1760;52.480;13.422;2022-07-06T14:25:50;21.80;69.60
3492;DHT22;1760;52.480;13.422;2022-07-06T14:28:17;21.80;69.80
3492;DHT22;1760;52.480;13.422;2022-07-06T14:30:45;22.00;69.90
3492;DHT22;1760;52.480;13.422;2022-07-06T14:33:14;22.00;69.10
3492;DHT22;1760;52.480;13.422;2022-07-06T14:35:44;22.00;69.20
3492;DHT22;1760;52.480;13.422;2022-07-06T14:38:12;22.00;69.00
3492;DHT22;1760;52.480;13.422;2022-07-06T14:40:40;22.10;69.80
3492;DHT22;1760;52.480;13.422;2022-07-06T14:43:08;22.10;70.20
3492;DHT22;1760;52.480;13.422;2022-07-06T14:45:34;22.00;70.40
3492;DHT22;1760;52.480;13.422;2022-07-06T14:48:01;22.00;70.70
3492;DHT22;1760;52.480;13.422;2022-07-06T14:50:28;21.80;70.80
3492;DHT22;1760;52.480;13.422;2022-07-06T14:52:57;21.60;71.50
3492;DHT22;1760;52.480;13.422;2022-07-06T14:55:24;21.50;72.20
3492;DHT22;1760;52.480;13.422;2022-07-06T14:57:51;21.40;72.60
3492;DHT22;1760;52.480;13.422;2022-07-06T15:00:17;21.40;72.90
3492;DHT22;1760;52.480;13.422;2022-07-06T15:02:44;21.40;73.30
3492;DHT22;1760;52.480;13.422;2022-07-06T15:05:12;21.40;73.40
3492;DHT22;1760;52.480;13.422;2022-07-06T15:07:39;21.30;74.30
3492;DHT22;1760;52.480;13.422;2022-07-06T15:10:09;21.30;74.40
3492;DHT22;1760;52.480;13.422;2022-07-06T15:12:36;21.30;74.50
3492;DHT22;1760;52.480;13.422;2022-07-06T15:15:04;21.30;75.10
3492;DHT22;1760;52.480;13.422;2022-07-06T15:17:33;21.10;75.60
3492;DHT22;1760;52.480;13.422;2022-07-06T15:20:00;21.00;76.00
3492;DHT22;1760;52.480;13.422;2022-07-06T15:22:28;20.90;76.80
3492;DHT22;1760;52.480;13.422;2022-07-06T15:24:55;20.90;77.40
3492;DHT22;1760;52.480;13.422;2022-07-06T15:27:23;20.90;77.50
3492;DHT22;1760;52.480;13.422;2022-07-06T15:29:50;21.00;77.90
3492;DHT22;1760;52.480;13.422;2022-07-06T15:32:17;21.00;78.50
3492;DHT22;1760;52.480;13.422;2022-07-06T15:34:44;20.90;78.40
3492;DHT22;1760;52.480;13.422;2022-07-06T15:37:11;20.80;78.90
3492;DHT22;1760;52.480;13.422;2022-07-06T15:39:38;20.70;78.90
3492;DHT22;1760;52.480;13.422;2022-07-06T15:42:05;20.70;79.20
3492;DHT22;1760;52.480;13.422;2022-07-06T15:44:33;20.80;78.90
3492;DHT22;1760;52.480;13.422;2022-07-06T15:47:03;20.70;79.10
3492;DHT22;1760;52.480;13.422;2022-07-06T15:49:32;20.80;78.50
3492;DHT22;1760;52.480;13.422;2022-07-06T15:51:59;20.90;78.70
3492;DHT22;1760;52.480;13.422;2022-07-06T15:54:26;21.00;78.90